Tiempo atmosférico en la estación meteorológica de Puerto El Pico, Ávila (1285 m.)



Fecha
DESCASC
Temp. máxima en grados centígrados (hora)
DESCASC
Temp. mínima en grados centígrados (hora)
DESCASC
Temp. media en grados centígrados
DESCASC
Racha de viento máxima en m/sg (hora)
DESCASC
Velocidad máxima media en intervalos de 10 minutos(hora)
DESCASC
Precipitaciones diarias en mm
DESCASC
Precipitaciones de 00:00 a 06:00 en mm
DESCASC
Precipitaciones de 06:00 a 12:00 en mm
DESCASC
Precipitaciones de 12:00 a 18:00 en mm
DESCASC
Precipitaciones de 18:00 a 24:00 en mm
DESCASC
06-07-2020 32.4 (16:10) 7.9 (07:10) 20.2 6.67 (13:40) 3.89 (13:40) 0 0 0 0 0
05-07-2020 31 (17:40) 4.3 (07:10) 17.7 7.78 (15:30) 4.72 (15:30) 0 0 0 0 0
04-07-2020 29.6 (17:50) 3.4 (06:40) 16.5 7.5 (15:50) 3.89 (14:00) 0 0 0 0 0
03-07-2020 26.7 (17:00) 3.2 (07:00) 15 7.78 (17:00) 4.17 (15:50) 0 0 0 0 0
02-07-2020 25.7 (17:00) 6.2 (00:00) 16 10.83 (16:40) 5.56 (14:00) 0 0 0 0 0
01-07-2020 27.1 (15:10) 7.8 (00:00) 17.5 10 (13:40) 5.83 (12:40) 0 0 0 0 0
30-06-2020 31 (17:30) 8.2 (00:00) 19.6 9.17 (16:00) 4.72 (16:00) 0 0 0 0 0
29-06-2020 29.4 (18:30) 7.6 (00:00) 18.5 9.17 (13:20) 5 (13:20) 0 0 0 0 0
28-06-2020 28.2 (17:30) 6.8 (00:00) 17.5 8.06 (15:30) 4.44 (11:50) 0 0 0 0 0
27-06-2020 23.9 (15:20) 7.4 (00:00) 15.6 8.61 (12:00) 5 (13:50) 0 0 0 0 0
26-06-2020 23.3 (16:00) 6.3 (00:00) 14.8 11.11 (15:00) 6.39 (15:00) 0 0 0 0 0
25-06-2020 26.8 (15:10) 8.9 (00:00) 17.8 9.72 (16:00) 5.28 (16:00) 0 0 0 0 0
24-06-2020 29 (16:20) 11.1 (00:00) 20.1 9.72 (16:20) 5 (15:50) 0.2 0 0.2 0 0
23-06-2020 30.4 (17:20) 6.9 (00:00) 18.6 8.61 (17:20) 4.72 (13:40) 0 0 0 0 0
22-06-2020 29.5 (18:30) 4.6 (00:00) 17 6.94 (15:50) 3.61 (13:30) 0 0 0 0 0
21-06-2020 27.6 (18:30) 4.5 (00:00) 16.1 8.33 (13:30) 5 (13:30) 0 0 0 0 0
20-06-2020 25.4 (18:30) 3 (00:00) 14.2 9.17 (14:00) 5.28 (13:50) 0 0 0 0 0
19-06-2020 23.6 (18:30) 2.2 (00:00) 12.9 10.28 (15:20) 5.28 (15:00) 0 0 0 0 0
18-06-2020 21.3 (17:40) 2.5 (00:00) 11.9 8.89 (14:50) 5 (13:50) 0 0 0 0 0
17-06-2020 19.2 (14:50) 1.6 (00:00) 10.4 8.61 (15:30) 4.72 (14:30) 0 0 0 0 0
16-06-2020 19.8 (16:10) 8.7 (00:00) 14.2 10 (17:40) 5.56 (17:50) 0 0 0 0 0
15-06-2020 19.5 (15:20) 2.2 (00:00) 10.9 9.44 (15:30) 5.28 (15:10) 0 0 0 0 0
14-06-2020 18.7 (15:10) 0.5 (00:00) 9.6 9.72 (14:10) 5 (12:00) 0 0 0 0 0
13-06-2020 17.1 (17:10) 2.9 (00:00) 10 10.28 (16:40) 5.56 (15:30) 0 0 0 0 0
12-06-2020 12.5 (18:30) 3.2 (00:00) 7.9 10.28 (16:50) 5.83 (13:30) 3.8 0 0 1 2.8
11-06-2020 18 (11:20) 3.1 (00:00) 10.5 11.39 (18:30) 5.56 (18:10) 0 0 0 0 0
10-06-2020 20.9 (17:10) -0.4 (00:00) 10.2 8.61 (15:50) 5 (14:10) 0 0 0 0 0
09-06-2020 19.8 (18:30) -1.3 (-00:0) 9.2 8.89 (14:00) 4.72 (13:50) 0 0 0 0 0
08-06-2020 16.6 (15:20) 2.9 (23:59) 9.8 9.72 (15:30) 6.11 (18:20) 0 0 0 0 0
07-06-2020 18.9 (17:30) 3.3 (00:00) 11.1 11.67 (15:50) 5.83 (14:50) 0 0 0 0 0

Gráficas

Temp. máximas Temp. mínimas Temp. medias Precipitaciones Rachas de viento máximas Velocidades máximas media en intervalos de 10 minutos

Datos horarios

Fecha y hora oficial Temperatura (ºC) Velocidad del viento (km/h) Dirección del viento Racha (km/h) Dirección de racha Precipitación (mm) Presión (hPa) Tendencia (hPa) Humedad (%)
2020-07-06 23:00:00 18.9 3 Sur 8 Sudeste 0 -- -- 62
2020-07-06 22:00:00 20.9 3 Sur 7 Norte 0 -- -- 58
2020-07-06 21:00:00 26.3 4 Sudoeste 9 Noroeste 0 -- -- 42
2020-07-06 20:00:00 27.9 5 Nordeste 14 Sudeste 0 -- -- 37
2020-07-06 19:00:00 30.8 4 Sur 10 Noroeste 0 -- -- 32
2020-07-06 18:00:00 29.4 6 Nordeste 15 Nordeste 0 -- -- 33
2020-07-06 17:00:00 30.7 4 Noroeste 15 Sudeste 0 -- -- 30
2020-07-06 16:00:00 30.6 9 Sur 18 Sudoeste 0 -- -- 30
2020-07-06 15:00:00 31.9 9 Sur 23 Sur 0 -- -- 28
2020-07-06 14:00:00 30.3 12 Sur 24 Sudoeste 0 -- -- 31
2020-07-06 13:00:00 30.3 9 Sur 20 Sur 0 -- -- 30
2020-07-06 12:00:00 29.5 6 Nordeste 14 Norte 0 -- -- 28
2020-07-06 11:00:00 28.3 4 Norte 6 Norte 0 -- -- 34
2020-07-06 10:00:00 24.5 0 Calma 4 Nordeste 0 -- -- 39
2020-07-06 09:00:00 20 0 Calma 4 Sur 0 -- -- 46
2020-07-06 08:00:00 8.9 3 Sur 4 Sur 0 -- -- 86
2020-07-06 07:00:00 8.2 0 Calma 5 Sur 0 -- -- 84
2020-07-06 06:00:00 8.2 4 Sur 6 Sur 0 -- -- 81
2020-07-06 05:00:00 8.7 2 Sur 3 Sudeste 0 -- -- 78
2020-07-06 04:00:00 9.4 2 Sur 5 Sudoeste 0 -- -- 75
2020-07-06 03:00:00 9.9 0 Calma 4 Sudoeste 0 -- -- 72
2020-07-06 02:00:00 11 0 Calma 3 Sudoeste 0 -- -- 68
2020-07-06 01:00:00 12.5 0 Calma 5 Sudeste 0 -- -- 63
2020-07-06 00:00:00 14.1 3 Sur 8 Sudeste 0 -- -- 59
2020-07-05 23:00:00 16 4 Sur 8 Sudoeste 0 -- -- 53
2020-07-05 22:00:00 19 5 Sur 12 Sudoeste 0 -- -- 48
2020-07-05 21:00:00 26.1 6 Sur 16 Sur 0 -- -- 31
2020-07-05 20:00:00 29.8 9 Sur 24 Sur 0 -- -- 26
2020-07-05 19:00:00 30.7 11 Sur 26 Sur 0 -- -- 25
2020-07-05 18:00:00 30.5 13 Sur 24 Sur 0 -- -- 26
2020-07-05 17:00:00 30.5 14 Sur 27 Sur 0 -- -- 27
2020-07-05 16:00:00 29.6 14 Sur 28 Sur 0 -- -- 27
2020-07-05 15:00:00 29.4 16 Sur 27 Sur 0 -- -- 26
2020-07-05 14:00:00 28.4 13 Sur 26 Sudoeste 0 -- -- 26
2020-07-05 13:00:00 28.4 13 Sur 23 Sudoeste 0 -- -- 25
2020-07-05 12:00:00 28.7 5 Norte 14 Sur 0 -- -- 23
2020-07-05 11:00:00 25.9 3 Nordeste 6 Nordeste 0 -- -- 29
2020-07-05 10:00:00 22.1 0 Calma 3 Nordeste 0 -- -- 33
2020-07-05 09:00:00 15.9 0 Calma 3 Sudeste 0 -- -- 46
2020-07-05 08:00:00 5.8 2 Sudeste 3 Sudoeste 0 -- -- 74
2020-07-05 07:00:00 4.7 2 Sur 4 Sur 0 -- -- 76
2020-07-05 06:00:00 5.5 3 Sur 4 Sur 0 -- -- 72
2020-07-05 05:00:00 6 0 Calma 3 Sur 0 -- -- 71
2020-07-05 04:00:00 7.1 2 Sur 4 Sudoeste 0 -- -- 68
2020-07-05 03:00:00 8.2 0 Calma 3 Sur 0 -- -- 64
2020-07-05 02:00:00 9.2 0 Calma 6 Sudeste 0 -- -- 61
2020-07-05 01:00:00 10 3 Sur 6 Sudeste 0 -- -- 59
2020-07-05 00:00:00 11.7 3 Sur 6 Sudeste 0 -- -- 56
2020-07-04 23:00:00 13.7 4 Sur 9 Sur 0 -- -- 52
2020-07-04 22:00:00 18.3 8 Sur 13 Norte 0 -- -- 41
2020-07-04 21:00:00 26.4 4 Norte 12 Nordeste 0 -- -- 27
2020-07-04 20:00:00 29 5 Sur 18 Sudoeste 0 -- -- 27
2020-07-04 19:00:00 28.8 12 Sudoeste 22 Sudoeste 0 -- -- 27
2020-07-04 18:00:00 29.4 12 Sur 26 Sur 0 -- -- 28
2020-07-04 17:00:00 28.5 14 Sudoeste 25 Sudoeste 0 -- -- 28
2020-07-04 16:00:00 28.3 12 Sudoeste 27 Sur 0 -- -- 28
2020-07-04 15:00:00 27.7 10 Sur 26 Sur 0 -- -- 30
2020-07-04 14:00:00 25.8 14 Sudoeste 26 Oeste 0 -- -- 31
2020-07-04 13:00:00 25.5 12 Sudoeste 22 Sudoeste 0 -- -- 33
2020-07-04 12:00:00 26.2 5 Noroeste 16 Norte 0 -- -- 31
2020-07-04 11:00:00 23.5 8 Norte 12 Norte 0 -- -- 35
2020-07-04 10:00:00 20.5 0 Calma 4 Nordeste 0 -- -- 45
2020-07-04 09:00:00 15.9 0 Calma 5 Sudeste 0 -- -- 53
2020-07-04 08:00:00 4.3 0 Calma 5 Sur 0 -- -- 88
2020-07-04 07:00:00 3.6 3 Sur 4 Sur 0 -- -- 87
2020-07-04 06:00:00 4.1 4 Sur 6 Sudoeste 0 -- -- 86
2020-07-04 05:00:00 5.4 2 Sudoeste 4 Sur 0 -- -- 80
2020-07-04 04:00:00 5.7 0 Calma 5 Sudoeste 0 -- -- 78
2020-07-04 03:00:00 7.3 0 Calma 5 Sudeste 0 -- -- 72
2020-07-04 02:00:00 8.3 2 Sur 6 Sudeste 0 -- -- 69
2020-07-04 01:00:00 9.6 3 Sur 7 Sudeste 0 -- -- 64
2020-07-04 00:00:00 10.8 4 Sur 8 Sudeste 0 -- -- 61
2020-07-03 23:00:00 12 5 Sur 7 Sudeste 0 -- -- 60
2020-07-03 22:00:00 15.2 4 Sur 9 Norte 0 -- -- 55
2020-07-03 21:00:00 23.2 7 Norte 17 Norte 0 -- -- 32
2020-07-03 20:00:00 25.9 8 Sudoeste 19 Sur 0 -- -- 38
2020-07-03 19:00:00 25.3 12 Sur 25 Sudoeste 0 -- -- 37
2020-07-03 18:00:00 26.5 14 Sudoeste 26 Sur 0 -- -- 35
2020-07-03 17:00:00 26.7 13 Sur 28 Sudoeste 0 -- -- 34
2020-07-03 16:00:00 25.4 14 Sudoeste 25 Sudoeste 0 -- -- 37
2020-07-03 15:00:00 24.4 15 Sur 24 Sur 0 -- -- 37
2020-07-03 14:00:00 23 14 Sur 24 Sudoeste 0 -- -- 40
2020-07-03 13:00:00 22.4 13 Sudoeste 24 Sudoeste 0 -- -- 42
2020-07-03 12:00:00 21.7 12 Sur 19 Sudoeste 0 -- -- 43
2020-07-03 11:00:00 21.1 5 Norte 10 Norte 0 -- -- 43
2020-07-03 10:00:00 18.5 3 Este 6 Nordeste 0 -- -- 50
2020-07-03 09:00:00 13.5 0 Calma 4 Sudoeste 0 -- -- 62
2020-07-03 08:00:00 3.8 2 Sur 4 Sur 0 -- -- 97
2020-07-03 07:00:00 3.2 0 Calma 3 Sur 0 -- -- 97
2020-07-03 06:00:00 4.5 0 Calma 3 Sur 0 -- -- 95
2020-07-03 05:00:00 5.7 2 Sur 6 Sur 0 -- -- 87
2020-07-03 04:00:00 7.2 2 Nordeste 8 Sudeste 0 -- -- 82
2020-07-03 03:00:00 8.3 3 Sur 10 Este 0 -- -- 77
2020-07-03 02:00:00 10.6 3 Este 10 Sudeste 0 -- -- 62
2020-07-03 01:00:00 10.5 7 Sudeste 10 Sudeste 0 -- -- 66
2020-07-03 00:00:00 11.2 4 Sur 10 Sudeste 0 -- -- 67
2020-07-02 23:00:00 12.9 3 Sudeste 9 Sudeste 0 -- -- 65
2020-07-02 22:00:00 15.7 5 Sur 17 Norte 0 -- -- 58
2020-07-02 21:00:00 22.4 7 Norte 20 Norte 0 -- -- 42
2020-07-02 20:00:00 22.1 11 Sudoeste 30 Sur 0 -- -- 47
2020-07-02 19:00:00 23.8 15 Sur 30 Sudoeste 0 -- -- 43
2020-07-02 18:00:00 23.5 18 Sur 35 Sur 0 -- -- 43
2020-07-02 17:00:00 25.7 14 Sur 39 Sudoeste 0 -- -- 40
2020-07-02 16:00:00 24.1 14 Sur 29 Sudoeste 0 -- -- 43
2020-07-02 15:00:00 24 17 Sur 35 Sur 0 -- -- 43
2020-07-02 14:00:00 22.4 20 Sur 32 Sur 0 -- -- 49
2020-07-02 13:00:00 22 20 Sur 34 Sudoeste 0 -- -- 50
2020-07-02 12:00:00 22.5 14 Sur 27 Sur 0 -- -- 49
2020-07-02 11:00:00 24.1 9 Sur 18 Sur 0 -- -- 42
2020-07-02 10:00:00 21.6 2 Norte 4 Norte 0 -- -- 56
2020-07-02 09:00:00 18.4 0 Calma 4 Sur 0 -- -- 62
2020-07-02 08:00:00 7.1 2 Sur 4 Sudoeste 0 -- -- 99
2020-07-02 07:00:00 6.6 0 Calma 6 Sudoeste 0 -- -- 97
2020-07-02 06:00:00 7 0 Calma 5 Sur 0 -- -- 98
2020-07-02 05:00:00 8.4 3 Sur 8 Sudoeste 0 -- -- 94
2020-07-02 04:00:00 10.6 2 Este 9 Sudeste 0 -- -- 86
2020-07-02 03:00:00 10.9 3 Sudoeste 6 Este 0 -- -- 88
2020-07-02 02:00:00 11.9 4 Sudeste 9 Sudoeste 0 -- -- 81
2020-07-02 01:00:00 12.4 4 Sur 7 Sur 0 -- -- 77
2020-07-02 00:00:00 12.7 3 Sur 10 Sudoeste 0 -- -- 71
2020-07-01 23:00:00 14.6 7 Sur 9 Sudoeste 0 -- -- 68
2020-07-01 22:00:00 19.2 5 Sur 12 Sudoeste 0 -- -- 55
2020-07-01 21:00:00 24.1 6 Sur 21 Sur 0 -- -- 42
2020-07-01 20:00:00 26.3 13 Sur 23 Sudoeste 0 -- -- 40
2020-07-01 19:00:00 24.4 10 Sur 22 Sudoeste 0 -- -- 50
2020-07-01 18:00:00 25.8 10 Sur 23 Sur 0 -- -- 50
2020-07-01 17:00:00 24.7 13 Sur 31 Sudoeste 0 -- -- 49
2020-07-01 16:00:00 26.1 17 Sur 32 Sudoeste 0 -- -- 43
2020-07-01 15:00:00 26.6 17 Sur 31 Sur 0 -- -- 44
2020-07-01 14:00:00 25.3 17 Sur 36 Sur 0 -- -- 47
2020-07-01 13:00:00 24.4 19 Sur 33 Sur 0 -- -- 48
2020-07-01 12:00:00 23.7 18 Sur 27 Sudoeste 0 -- -- 48
2020-07-01 11:00:00 23 13 Sur 22 Sur 0 -- -- 45
2020-07-01 10:00:00 21.7 12 Sur 22 Sudoeste 0 -- -- 48
2020-07-01 09:00:00 17.1 3 Nordeste 5 Norte 0 -- -- 66
2020-07-01 08:00:00 8.3 2 Sur 8 Sur 0 -- -- 94
2020-07-01 07:00:00 7.8 5 Sur 8 Sudoeste 0 -- -- 93
2020-07-01 06:00:00 8.6 4 Sur 9 Sudoeste 0 -- -- 91
2020-07-01 05:00:00 9.7 0 Calma 4 Sudoeste 0 -- -- 84
2020-07-01 04:00:00 10.6 0 Calma 6 Sur 0 -- -- 81
2020-07-01 03:00:00 11.5 2 Sur 10 Sur 0 -- -- 80
2020-07-01 02:00:00 12.2 4 Sur 6 Sur 0 -- -- 80
2020-07-01 01:00:00 13.3 0 Calma 5 Sudeste 0 -- -- 75
2020-07-01 00:00:00 15.1 3 Sudeste 10 Sur 0 -- -- 68
2020-06-30 23:00:00 17.5 7 Sur 15 Sur 0 -- -- 58
2020-06-30 22:00:00 20.2 7 Sudoeste 13 Sudoeste 0 -- -- 49
2020-06-30 21:00:00 27 4 Sudoeste 21 Sudoeste 0 -- -- 35
2020-06-30 20:00:00 29 8 Sudoeste 28 Sur 0 -- -- 32
2020-06-30 19:00:00 29.8 15 Sur 29 Sudoeste 0 -- -- 31
2020-06-30 18:00:00 30.4 14 Sur 33 Sur 0 -- -- 31
2020-06-30 17:00:00 30.5 11 Sur 32 Sur 0 -- -- 29
2020-06-30 16:00:00 29.8 17 Sur 33 Sudeste 0 -- -- 25
2020-06-30 15:00:00 29.5 12 Sur 26 Sur 0 -- -- 31
2020-06-30 14:00:00 28.8 11 Sur 23 Sudoeste 0 -- -- 33
2020-06-30 13:00:00 28.2 13 Sur 22 Sudoeste 0 -- -- 36
2020-06-30 12:00:00 28 12 Sudoeste 20 Sur 0 -- -- 37
2020-06-30 11:00:00 28 9 Sur 15 Sudoeste 0 -- -- 32
2020-06-30 10:00:00 24.8 0 Calma 4 Oeste 0 -- -- 45
2020-06-30 09:00:00 19.4 0 Calma 5 Sudeste 0 -- -- 61
2020-06-30 08:00:00 9.6 0 Calma 4 Sur 0 -- -- 91
2020-06-30 07:00:00 8.3 0 Calma 4 Sudoeste 0 -- -- 93
2020-06-30 06:00:00 8.6 0 Calma 5 Sudoeste 0 -- -- 91
2020-06-30 05:00:00 9.2 3 Sur 5 Sudoeste 0 -- -- 89
2020-06-30 04:00:00 10 0 Calma 6 Sudeste 0 -- -- 84
2020-06-30 03:00:00 10.3 0 Calma 4 Sur 0 -- -- 81
2020-06-30 02:00:00 11.7 4 Sur 8 Sudoeste 0 -- -- 76
2020-06-30 01:00:00 12.7 0 Calma 7 Sudeste 0 -- -- 75
2020-06-30 00:00:00 14.6 5 Sur 9 Sur 0 -- -- 69
2020-06-29 23:00:00 16 0 Calma 6 Sur 0 -- -- 66
2020-06-29 22:00:00 19.5 6 Sur 12 Sudoeste 0 -- -- 56
2020-06-29 21:00:00 26.1 6 Sur 20 Sur 0 -- -- 36
2020-06-29 20:00:00 28 14 Sur 25 Sudoeste 0 -- -- 33
2020-06-29 19:00:00 29.2 14 Sur 31 Sur 0 -- -- 30
2020-06-29 18:00:00 29 17 Sur 29 Sudoeste 0 -- -- 29
2020-06-29 17:00:00 29.1 15 Sur 28 Sur 0 -- -- 31
2020-06-29 16:00:00 28.3 16 Sur 31 Sudoeste 0 -- -- 34
2020-06-29 15:00:00 27.9 13 Sudoeste 32 Sur 0 -- -- 41
2020-06-29 14:00:00 27.1 13 Sur 33 Sur 0 -- -- 41
2020-06-29 13:00:00 26.1 17 Sur 31 Sur 0 -- -- 44
2020-06-29 12:00:00 25.8 13 Sur 26 Sur 0 -- -- 44
2020-06-29 11:00:00 24 14 Sur 24 Sudoeste 0 -- -- 53
2020-06-29 10:00:00 21.4 5 Norte 8 Norte 0 -- -- 62
2020-06-29 09:00:00 17.2 3 Nordeste 5 Nordeste 0 -- -- 74
2020-06-29 08:00:00 8.7 0 Calma 6 Sur 0 -- -- 99
2020-06-29 07:00:00 7.7 3 Sur 5 Sudoeste 0 -- -- 98
2020-06-29 06:00:00 8.8 0 Calma 3 Sur 0 -- -- 97
2020-06-29 05:00:00 9.5 0 Calma 4 Sudoeste 0 -- -- 96
2020-06-29 04:00:00 10.8 2 Sur 5 Sur 0 -- -- 92
2020-06-29 03:00:00 11.5 3 Sur 7 Sudeste 0 -- -- 88
2020-06-29 02:00:00 13.1 4 Sur 6 Sur 0 -- -- 82
2020-06-29 01:00:00 13.5 0 Calma 10 Sudeste 0 -- -- 79
2020-06-29 00:00:00 14.9 5 Sudeste 11 Sudeste 0 -- -- 73
2020-06-28 23:00:00 15.5 4 Sur 8 Sudeste 0 -- -- 74
2020-06-28 22:00:00 19.1 6 Sur 12 Sudoeste 0 -- -- 66
2020-06-28 21:00:00 25.1 7 Sudoeste 18 Sudoeste 0 -- -- 51
2020-06-28 20:00:00 26.8 10 Sudoeste 26 Sur 0 -- -- 48
2020-06-28 19:00:00 27.4 12 Sudoeste 26 Sur 0 -- -- 45
2020-06-28 18:00:00 28 13 Sudoeste 27 Sudoeste 0 -- -- 42
2020-06-28 17:00:00 27.6 14 Sudoeste 25 Sur 0 -- -- 41
2020-06-28 16:00:00 27.5 13 Sur 29 Sudoeste 0 -- -- 42
2020-06-28 15:00:00 26.6 14 Sur 25 Sur 0 -- -- 43
2020-06-28 14:00:00 25.4 15 Sur 25 Sudoeste 0 -- -- 46
2020-06-28 13:00:00 24.5 13 Sudoeste 26 Sudoeste 0 -- -- 49
2020-06-28 12:00:00 22.5 14 Sur 26 Sudoeste 0 -- -- 55
2020-06-28 11:00:00 23.1 9 Sur 17 Sur 0 -- -- 55
2020-06-28 10:00:00 20 4 Nordeste 7 Norte 0 -- -- 61
2020-06-28 09:00:00 17.4 0 Calma 4 Nordeste 0 -- -- 68
2020-06-28 08:00:00 8 0 Calma 4 Sur 0 -- -- 100
2020-06-28 07:00:00 7.3 0 Calma 4 Sudoeste 0 -- -- 99
2020-06-28 06:00:00 7.3 0 Calma 4 Sudeste 0 -- -- 99
2020-06-28 05:00:00 8 0 Calma 4 Sudeste 0 -- -- 96
2020-06-28 04:00:00 9.1 0 Calma 5 Sudeste 0 -- -- 95
2020-06-28 03:00:00 10.2 2 Sur 9 Sudeste 0 -- -- 94
2020-06-28 02:00:00 10.9 0 Calma 5 Sudeste 0 -- -- 90
2020-06-28 01:00:00 11.7 2 Sur 8 Sudeste 0 -- -- 88
2020-06-28 00:00:00 13.3 7 Sur 10 Sudeste 0 -- -- 82
2020-06-27 23:00:00 13.8 3 Sur 8 Sur 0 -- -- 81
2020-06-27 22:00:00 16.8 7 Sur 11 Sudoeste 0 -- -- 71
2020-06-27 21:00:00 22.1 5 Sudoeste 14 Sudoeste 0 -- -- 56
2020-06-27 20:00:00 22.5 6 Sudoeste 17 Sur 0 -- -- 58
2020-06-27 19:00:00 23.1 8 Sudoeste 19 Sudoeste 0 -- -- 56
2020-06-27 18:00:00 22.5 11 Sur 22 Sur 0 -- -- 55
2020-06-27 17:00:00 22.3 11 Sur 24 Sur 0 -- -- 53
2020-06-27 16:00:00 22.5 14 Sur 28 Sur 0 -- -- 52
2020-06-27 15:00:00 23.7 14 Sur 31 Sur 0 -- -- 49
2020-06-27 14:00:00 22.4 17 Sur 31 Sudoeste 0 -- -- 50
2020-06-27 13:00:00 21.7 15 Sur 28 Sur 0 -- -- 51
2020-06-27 12:00:00 20.7 17 Sur 31 Sur 0 -- -- 53
2020-06-27 11:00:00 20.6 12 Sur 21 Sudoeste 0 -- -- 50
2020-06-27 10:00:00 20.5 2 Nordeste 6 Norte 0 -- -- 54
2020-06-27 09:00:00 17.7 0 Calma 3 Sudeste 0 -- -- 65
2020-06-27 08:00:00 8.4 3 Sudeste 6 Sur 0 -- -- 98
2020-06-27 07:00:00 7.4 0 Calma 5 Sur 0 -- -- 97
2020-06-27 06:00:00 8.2 0 Calma 4 Sudoeste 0 -- -- 94
2020-06-27 05:00:00 8.9 2 Sur 9 Sudeste 0 -- -- 93
2020-06-27 04:00:00 9.3 4 Sur 8 Sudoeste 0 -- -- 91
2020-06-27 03:00:00 9.6 2 Norte 6 Sudeste 0 -- -- 88
2020-06-27 02:00:00 9.8 0 Calma 7 Oeste 0 -- -- 84
2020-06-27 01:00:00 10.9 5 Sur 11 Sudeste 0 -- -- 79
2020-06-27 00:00:00 11.2 5 Sur 10 Sudeste 0 -- -- 76
2020-06-26 23:00:00 12.1 3 Sur 8 Sur 0 -- -- 73
2020-06-26 22:00:00 14.3 4 Sur 10 Sudoeste 0 -- -- 64
2020-06-26 21:00:00 20.1 6 Sudoeste 19 Sur 0 -- -- 43
2020-06-26 20:00:00 21.1 12 Sudoeste 26 Sudoeste 0 -- -- 36
2020-06-26 19:00:00 20.8 16 Sur 32 Sur 0 -- -- 32
2020-06-26 18:00:00 22.6 20 Sur 38 Sudoeste 0 -- -- 31
2020-06-26 17:00:00 22.6 22 Sur 37 Sur 0 -- -- 32
2020-06-26 16:00:00 23.3 18 Sur 36 Sur 0 -- -- 29
2020-06-26 15:00:00 22 23 Sur 40 Sur 0 -- -- 32
2020-06-26 14:00:00 21.5 19 Sur 33 Sudoeste 0 -- -- 38
2020-06-26 13:00:00 20.2 12 Sur 24 Sudoeste 0 -- -- 45
2020-06-26 12:00:00 19 14 Sur 26 Sudoeste 0 -- -- 50
2020-06-26 11:00:00 20.3 12 Sur 26 Sudoeste 0 -- -- 54
2020-06-26 10:00:00 19.3 12 Sur 20 Sur 0 -- -- 57
2020-06-26 09:00:00 13.1 5 Norte 11 Nordeste 0 -- -- 83
2020-06-26 08:00:00 9 0 Calma 4 Este 0 -- -- 99
2020-06-26 07:00:00 6.3 2 Sur 4 Sudoeste 0 -- -- 98
2020-06-26 06:00:00 6.9 0 Calma 5 Sudoeste 0 -- -- 95
2020-06-26 05:00:00 7.8 2 Sur 6 Sudeste 0 -- -- 94
2020-06-26 04:00:00 8.8 0 Calma 5 Sur 0 -- -- 93
2020-06-26 03:00:00 9.6 2 Sur 6 Sudoeste 0 -- -- 88
2020-06-26 02:00:00 10.2 2 Sur 7 Sudeste 0 -- -- 86
2020-06-26 01:00:00 11.9 3 Sur 9 Sur 0 -- -- 81
2020-06-26 00:00:00 13 3 Sur 6 Sudoeste 0 -- -- 76
2020-06-25 23:00:00 15.7 5 Sudeste 12 Sur 0 -- -- 64
2020-06-25 22:00:00 18.6 8 Sur 10 Sur 0 -- -- 58
2020-06-25 21:00:00 22.9 4 Sur 15 Oeste 0 -- -- 45
2020-06-25 20:00:00 23.6 7 Sudoeste 22 Sudoeste 0 -- -- 40
2020-06-25 19:00:00 26 12 Sudoeste 25 Sur 0 -- -- 36
2020-06-25 18:00:00 26.1 17 Sur 32 Sur 0 -- -- 37
2020-06-25 17:00:00 26.6 18 Sur 35 Sur 0 -- -- 36
2020-06-25 16:00:00 26 19 Sur 35 Sudoeste 0 -- -- 36
2020-06-25 15:00:00 26.1 13 Sur 27 Sudoeste 0 -- -- 42
2020-06-25 14:00:00 25.5 14 Sur 27 Sudoeste 0 -- -- 45
2020-06-25 13:00:00 24.4 15 Sur 28 Sudoeste 0 -- -- 46
2020-06-25 12:00:00 23.5 15 Sur 29 Sur 0 -- -- 48
2020-06-25 11:00:00 22.5 16 Sur 27 Sur 0 -- -- 50
2020-06-25 10:00:00 22 2 Nordeste 5 Noroeste 0 -- -- 50
2020-06-25 09:00:00 15.2 0 Calma 4 Sur 0 -- -- 75
2020-06-25 08:00:00 10.3 0 Calma 5 Sudoeste 0 -- -- 90
2020-06-25 07:00:00 9.2 0 Calma 4 Sur 0 -- -- 90
2020-06-25 06:00:00 9.3 0 Calma 5 Sudeste 0 -- -- 89
2020-06-25 05:00:00 9.5 0 Calma 5 Sudoeste 0 -- -- 88
2020-06-25 04:00:00 10.1 5 Sur 7 Sudoeste 0 -- -- 88
2020-06-25 03:00:00 11.7 5 Sur 7 Sudeste 0 -- -- 82
2020-06-25 02:00:00 13.5 0 Calma 6 Este 0 -- -- 76
2020-06-25 01:00:00 14.9 2 Norte 6 Sudoeste 0 -- -- 73
2020-06-25 00:00:00 15.6 3 Sudeste 7 Sudoeste 0 -- -- 66
2020-06-24 23:00:00 17.1 3 Sur 8 Sudeste 0 -- -- 63
2020-06-24 22:00:00 20.5 3 Sur 10 Sudoeste 0 -- -- 57
2020-06-24 21:00:00 25.2 4 Sudoeste 16 Sudoeste 0 -- -- 43
2020-06-24 20:00:00 27.7 8 Sudoeste 22 Sur 0 -- -- 35
2020-06-24 19:00:00 28.3 9 Sudoeste 22 Sudoeste 0 -- -- 34
2020-06-24 18:00:00 28.3 10 Sur 26 Sur 0 -- -- 32
2020-06-24 17:00:00 28.1 10 Sudoeste 35 Sur 0 -- -- 31
2020-06-24 16:00:00 28.5 14 Sudoeste 33 Sur 0 -- -- 35
2020-06-24 15:00:00 26.5 17 Sur 32 Sudoeste 0 -- -- 37
2020-06-24 14:00:00 27.4 14 Sur 27 Sur 0 -- -- 39
2020-06-24 13:00:00 26.5 12 Sur 22 Sudoeste 0 -- -- 42
2020-06-24 12:00:00 24.5 13 Sur 24 Sur 0 -- -- 42
2020-06-24 11:00:00 23 3 Norte 7 Norte 0 -- -- 52
2020-06-24 10:00:00 19.1 3 Sudoeste 6 Norte 0 -- -- 65
2020-06-24 09:00:00 19.9 0 Calma 8 Sudoeste 0 -- -- 57
2020-06-24 08:00:00 11.8 2 Sur 10 Este 0 -- -- 86
2020-06-24 07:00:00 12.1 7 Nordeste 12 Oeste 0.2 -- -- 89
2020-06-24 06:00:00 11.7 4 Nordeste 17 Sudoeste 0 -- -- 90
2020-06-24 05:00:00 11.7 2 Norte 10 Sudoeste 0 -- -- 86
2020-06-24 04:00:00 12.2 2 Nordeste 7 Sudoeste 0 -- -- 74
2020-06-24 03:00:00 11.9 2 Sur 10 Sudeste 0 -- -- 75
2020-06-24 02:00:00 12.8 4 Sur 8 Oeste 0 -- -- 72
2020-06-24 01:00:00 13 0 Calma 4 Sudoeste 0 -- -- 70
2020-06-24 00:00:00 15 0 Calma 6 Sur 0 -- -- 64
2020-06-23 23:00:00 15 5 Sur 9 Sur 0 -- -- 63
2020-06-23 22:00:00 18.8 4 Sur 11 Sur 0 -- -- 56
2020-06-23 21:00:00 25.6 5 Sudoeste 17 Sudoeste 0 -- -- 37
2020-06-23 20:00:00 29.1 9 Sur 24 Sur 0 -- -- 30
2020-06-23 19:00:00 29.6 14 Sur 27 Sudoeste 0 -- -- 30
2020-06-23 18:00:00 30.1 15 Sur 31 Sur 0 -- -- 27
2020-06-23 17:00:00 30 16 Sur 30 Sur 0 -- -- 26
2020-06-23 16:00:00 29.1 16 Sur 30 Sur 0 -- -- 30
2020-06-23 15:00:00 28.3 17 Sur 29 Sudoeste 0 -- -- 36
2020-06-23 14:00:00 27.9 16 Sur 27 Sur 0 -- -- 36
2020-06-23 13:00:00 26.6 15 Sur 26 Sur 0 -- -- 38
2020-06-23 12:00:00 26.7 13 Sur 22 Sudoeste 0 -- -- 37
2020-06-23 11:00:00 25.1 5 Norte 9 Norte 0 -- -- 41
2020-06-23 10:00:00 21.7 3 Nordeste 5 Nordeste 0 -- -- 52
2020-06-23 09:00:00 18.7 0 Calma 4 Sudoeste 0 -- -- 54
2020-06-23 08:00:00 8.2 2 Sudoeste 4 Sudoeste 0 -- -- 90
2020-06-23 07:00:00 6.9 2 Sur 4 Sudoeste 0 -- -- 91
2020-06-23 06:00:00 7.7 3 Sur 4 Sudoeste 0 -- -- 87
2020-06-23 05:00:00 8.4 3 Sur 7 Sudeste 0 -- -- 83
2020-06-23 04:00:00 8.9 0 Calma 5 Sur 0 -- -- 80
2020-06-23 03:00:00 10.2 0 Calma 5 Sur 0 -- -- 76
2020-06-23 02:00:00 11 0 Calma 6 Sudeste 0 -- -- 73
2020-06-23 01:00:00 13.2 5 Sur 9 Sudeste 0 -- -- 65
2020-06-23 00:00:00 15 3 Sudeste 11 Sudeste 0 -- -- 60
2020-06-22 23:00:00 16 3 Sur 12 Sur 0 -- -- 58
2020-06-22 22:00:00 17.9 6 Sudoeste 10 Sudoeste 0 -- -- 55
2020-06-22 21:00:00 24.6 5 Sur 13 Sudoeste 0 -- -- 38
2020-06-22 20:00:00 28.1 10 Sudoeste 19 Sudoeste 0 -- -- 28
2020-06-22 19:00:00 29.1 11 Sudoeste 21 Sudoeste 0 -- -- 25
2020-06-22 18:00:00 29.3 12 Sudoeste 23 Sudoeste 0 -- -- 24
2020-06-22 17:00:00 29 10 Sudoeste 25 Sudoeste 0 -- -- 25
2020-06-22 16:00:00 28.2 12 Sudoeste 25 Sudoeste 0 -- -- 28
2020-06-22 15:00:00 27.8 12 Sur 23 Sudoeste 0 -- -- 30
2020-06-22 14:00:00 26.8 11 Sur 24 Sudoeste 0 -- -- 31
2020-06-22 13:00:00 26.7 10 Sudoeste 19 Sudoeste 0 -- -- 34
2020-06-22 12:00:00 24.9 9 Nordeste 21 Nordeste 0 -- -- 40
2020-06-22 11:00:00 23 11 Nordeste 17 Norte 0 -- -- 43
2020-06-22 10:00:00 20.1 3 Nordeste 6 Norte 0 -- -- 52
2020-06-22 09:00:00 16.5 0 Calma 5 Sudeste 0 -- -- 52
2020-06-22 08:00:00 6.4 0 Calma 4 Sur 0 -- -- 88
2020-06-22 07:00:00 5 3 Sur 5 Sudoeste 0 -- -- 91
2020-06-22 06:00:00 5.2 0 Calma 4 Sur 0 -- -- 89
2020-06-22 05:00:00 6.1 0 Calma 4 Sur 0 -- -- 83
2020-06-22 04:00:00 7.3 0 Calma 4 Sur 0 -- -- 81
2020-06-22 03:00:00 7.9 0 Calma 3 Sudeste 0 -- -- 78
2020-06-22 02:00:00 8.9 0 Calma 5 Sur 0 -- -- 73
2020-06-22 01:00:00 10.3 3 Sur 7 Sudeste 0 -- -- 69
2020-06-22 00:00:00 11.2 4 Sur 8 Sudeste 0 -- -- 68
2020-06-21 23:00:00 13.5 4 Sur 11 Sudeste 0 -- -- 62
2020-06-21 22:00:00 16.1 4 Sur 5 Sur 0 -- -- 57
2020-06-21 21:00:00 24.2 4 Norte 17 Norte 0 -- -- 35
2020-06-21 20:00:00 26.3 8 Norte 21 Norte 0 -- -- 29
2020-06-21 19:00:00 27.3 10 Sudoeste 22 Sudoeste 0 -- -- 37
2020-06-21 18:00:00 24.6 9 Sudoeste 21 Sudoeste 0 -- -- 43
2020-06-21 17:00:00 25.6 11 Sur 24 Sudoeste 0 -- -- 39
2020-06-21 16:00:00 26.8 14 Sur 25 Sur 0 -- -- 37
2020-06-21 15:00:00 25.8 14 Sudoeste 28 Sur 0 -- -- 39
2020-06-21 14:00:00 24.4 15 Sur 30 Sudoeste 0 -- -- 41
2020-06-21 13:00:00 23.5 16 Sur 26 Sur 0 -- -- 44
2020-06-21 12:00:00 23.8 12 Sur 19 Sudoeste 0 -- -- 42
2020-06-21 11:00:00 23.8 3 Nordeste 8 Nordeste 0 -- -- 40
2020-06-21 10:00:00 20.7 0 Calma 3 Norte 0 -- -- 55
2020-06-21 09:00:00 15.3 2 Nordeste 6 Sudeste 0 -- -- 68
2020-06-21 08:00:00 5.7 0 Calma 4 Sudeste 0 -- -- 98
2020-06-21 07:00:00 4.8 0 Calma 4 Sur 0 -- -- 98
2020-06-21 06:00:00 5.2 0 Calma 5 Sudoeste 0 -- -- 98
2020-06-21 05:00:00 5.7 4 Sur 5 Sudoeste 0 -- -- 95
2020-06-21 04:00:00 6.4 3 Sur 5 Sur 0 -- -- 92
2020-06-21 03:00:00 8.2 2 Sur 6 Sur 0 -- -- 87
2020-06-21 02:00:00 8.9 4 Sur 6 Sur 0 -- -- 82
2020-06-21 01:00:00 9.8 3 Sur 8 Sur 0 -- -- 77
2020-06-21 00:00:00 10.7 2 Este 8 Sudeste 0 -- -- 78
2020-06-20 23:00:00 12.4 4 Sudoeste 13 Sur 0 -- -- 72
2020-06-20 22:00:00 15.9 8 Sur 13 Sudoeste 0 -- -- 63
2020-06-20 21:00:00 22.1 3 Sur 18 Sudoeste 0 -- -- 47
2020-06-20 20:00:00 24.7 10 Sur 23 Sur 0 -- -- 38
2020-06-20 19:00:00 23.9 12 Sur 30 Sur 0 -- -- 39
2020-06-20 18:00:00 25.1 16 Sur 28 Sur 0 -- -- 39
2020-06-20 17:00:00 24.6 17 Sur 30 Sur 0 -- -- 38
2020-06-20 16:00:00 24.2 18 Sur 33 Sur 0 -- -- 37
2020-06-20 15:00:00 23.2 17 Sur 33 Sur 0 -- -- 40
2020-06-20 14:00:00 22.4 18 Sur 33 Sudoeste 0 -- -- 41
2020-06-20 13:00:00 22.3 17 Sur 30 Sudoeste 0 -- -- 38
2020-06-20 12:00:00 21.4 18 Sudoeste 29 Sur 0 -- -- 42
2020-06-20 11:00:00 21.6 12 Sur 21 Sudoeste 0 -- -- 42
2020-06-20 10:00:00 19.9 2 Nordeste 5 Sur 0 -- -- 45
2020-06-20 09:00:00 14.8 0 Calma 4 Sur 0 -- -- 61
2020-06-20 08:00:00 4.9 3 Sudeste 6 Sur 0 -- -- 96
2020-06-20 07:00:00 3.1 2 Sur 4 Sur 0 -- -- 98
2020-06-20 06:00:00 3.5 2 Sur 5 Sudoeste 0 -- -- 96
2020-06-20 05:00:00 4.6 3 Sur 4 Sur 0 -- -- 94
2020-06-20 04:00:00 5 0 Calma 5 Sur 0 -- -- 92
2020-06-20 03:00:00 5.8 2 Sur 4 Sur 0 -- -- 91
2020-06-20 02:00:00 7.1 2 Sur 4 Sur 0 -- -- 84
2020-06-20 01:00:00 8.1 3 Sur 6 Sudeste 0 -- -- 81
2020-06-20 00:00:00 9.4 3 Sur 8 Sudoeste 0 -- -- 80
2020-06-19 23:00:00 10.7 6 Sur 11 Sudoeste 0 -- -- 76
2020-06-19 22:00:00 15.2 8 Sudoeste 12 Sur 0 -- -- 63
2020-06-19 21:00:00 20.2 4 Sudoeste 14 Sudoeste 0 -- -- 49
2020-06-19 20:00:00 20.2 11 Sur 24 Sudoeste 0 -- -- 49
2020-06-19 19:00:00 22 13 Sur 28 Sur 0 -- -- 44
2020-06-19 18:00:00 23.2 15 Sudoeste 29 Sur 0 -- -- 43
2020-06-19 17:00:00 22.6 17 Sur 31 Sur 0 -- -- 44
2020-06-19 16:00:00 22.6 17 Sur 37 Sur 0 -- -- 45
2020-06-19 15:00:00 21.4 19 Sur 36 Sur 0 -- -- 46
2020-06-19 14:00:00 20.8 16 Sur 32 Sur 0 -- -- 49
2020-06-19 13:00:00 20.1 17 Sur 32 Sudoeste 0 -- -- 48
2020-06-19 12:00:00 19.9 15 Sur 27 Sudoeste 0 -- -- 49
2020-06-19 11:00:00 18.9 13 Sur 22 Sudoeste 0 -- -- 48
2020-06-19 10:00:00 18.3 8 Sur 14 Sudoeste 0 -- -- 52
2020-06-19 09:00:00 13.2 2 Nordeste 5 Sudeste 0 -- -- 68
2020-06-19 08:00:00 4.2 3 Sur 4 Sudeste 0 -- -- 100
2020-06-19 07:00:00 2.4 3 Sur 8 Sudoeste 0 -- -- 98
2020-06-19 06:00:00 2.6 0 Calma 6 Sudoeste 0 -- -- 96
2020-06-19 05:00:00 3 2 Sur 4 Sudeste 0 -- -- 97
2020-06-19 04:00:00 5 3 Sur 7 Sudeste 0 -- -- 93
2020-06-19 03:00:00 4.8 3 Sur 6 Sudeste 0 -- -- 91
2020-06-19 02:00:00 6.3 3 Sur 6 Sur 0 -- -- 88
2020-06-19 01:00:00 7.4 2 Sur 6 Sudeste 0 -- -- 87
2020-06-19 00:00:00 8.9 4 Sudeste 13 Sudeste 0 -- -- 83
2020-06-18 23:00:00 9.7 4 Sur 9 Sur 0 -- -- 84
2020-06-18 22:00:00 13.2 5 Sur 10 Sur 0 -- -- 73
2020-06-18 21:00:00 17.1 8 Sur 13 Sur 0 -- -- 59
2020-06-18 20:00:00 18.6 3 Sur 7 Sudoeste 0 -- -- 61
2020-06-18 19:00:00 18.1 6 Sur 19 Sur 0 -- -- 56
2020-06-18 18:00:00 19.4 10 Sur 21 Sur 0 -- -- 52
2020-06-18 17:00:00 20.6 10 Sur 19 Sur 0 -- -- 47
2020-06-18 16:00:00 19.5 10 Sur 24 Sur 0 -- -- 50
2020-06-18 15:00:00 18.9 14 Sur 32 Sur 0 -- -- 51
2020-06-18 14:00:00 19.1 18 Sur 30 Sudoeste 0 -- -- 51
2020-06-18 13:00:00 19 16 Sur 28 Sur 0 -- -- 49
2020-06-18 12:00:00 19.1 12 Sur 25 Sudoeste 0 -- -- 50
2020-06-18 11:00:00 18.1 11 Sur 20 Sudoeste 0 -- -- 53
2020-06-18 10:00:00 16.5 4 Norte 8 Nordeste 0 -- -- 56
2020-06-18 09:00:00 14.7 0 Calma 5 Sudoeste 0 -- -- 65
2020-06-18 08:00:00 4.4 3 Sudeste 8 Sur 0 -- -- 100
2020-06-18 07:00:00 2.6 0 Calma 7 Sur 0 -- -- 98
2020-06-18 06:00:00 2.9 0 Calma 6 Sur 0 -- -- 97
2020-06-18 05:00:00 4 5 Sudoeste 8 Sudoeste 0 -- -- 98
2020-06-18 04:00:00 5.7 5 Sur 8 Sudoeste 0 -- -- 92
2020-06-18 03:00:00 8.3 3 Sur 5 Sudeste 0 -- -- 87
2020-06-18 02:00:00 8.7 2 Sur 5 Sudoeste 0 -- -- 87
2020-06-18 01:00:00 8.6 2 Sur 5 Sudoeste 0 -- -- 89
2020-06-18 00:00:00 9 3 Sur 9 Sur 0 -- -- 85
2020-06-17 23:00:00 9.5 3 Sur 9 Sudoeste 0 -- -- 82
2020-06-17 22:00:00 13 4 Sur 12 Sur 0 -- -- 71
2020-06-17 21:00:00 17.3 8 Sudoeste 16 Sur 0 -- -- 56
2020-06-17 20:00:00 16.7 8 Sur 17 Sur 0 -- -- 60
2020-06-17 19:00:00 16.9 8 Sur 17 Sur 0 -- -- 58
2020-06-17 18:00:00 16.5 10 Sur 22 Sur 0 -- -- 57
2020-06-17 17:00:00 17.6 14 Sur 31 Sudoeste 0 -- -- 52
2020-06-17 16:00:00 16.9 15 Sur 31 Sudoeste 0 -- -- 54
2020-06-17 15:00:00 19.1 14 Sur 30 Sur 0 -- -- 50
2020-06-17 14:00:00 17.3 16 Sur 29 Sudoeste 0 -- -- 55
2020-06-17 13:00:00 16.8 15 Sudoeste 25 Sudoeste 0 -- -- 57
2020-06-17 12:00:00 16.6 12 Sur 25 Sur 0 -- -- 55
2020-06-17 11:00:00 15.4 13 Sur 21 Sudoeste 0 -- -- 58
2020-06-17 10:00:00 14.4 4 Este 8 Nordeste 0 -- -- 59
2020-06-17 09:00:00 11 0 Calma 6 Sudeste 0 -- -- 73
2020-06-17 08:00:00 3 3 Sudeste 4 Sudoeste 0 -- -- 100
2020-06-17 07:00:00 1.9 0 Calma 7 Sudeste 0 -- -- 99
2020-06-17 06:00:00 2.4 3 Sur 7 Sur 0 -- -- 98
2020-06-17 05:00:00 3.9 4 Sudeste 9 Sudeste 0 -- -- 95
2020-06-17 04:00:00 6 3 Sudeste 9 Sudoeste 0 -- -- 91
2020-06-17 03:00:00 6.9 5 Sur 14 Este 0 -- -- 87
2020-06-17 02:00:00 8.3 7 Este 18 Este 0 -- -- 80
2020-06-17 01:00:00 7.8 5 Este 10 Sudeste 0 -- -- 85
2020-06-17 00:00:00 8.9 5 Este 9 Este 0 -- -- 83
2020-06-16 23:00:00 10.3 0 Calma 16 Oeste 0 -- -- 77
2020-06-16 22:00:00 12.2 4 Sur 13 Norte 0 -- -- 76
2020-06-16 21:00:00 14.9 5 Norte 23 Norte 0 -- -- 61
2020-06-16 20:00:00 17.3 8 Norte 30 Norte 0 -- -- 54
2020-06-16 19:00:00 18.5 12 Norte 36 Norte 0 -- -- 50
2020-06-16 18:00:00 18.3 19 Norte 36 Norte 0 -- -- 55
2020-06-16 17:00:00 19.2 10 Noroeste 33 Norte 0 -- -- 45
2020-06-16 16:00:00 19.7 8 Oeste 33 Oeste 0 -- -- 48
2020-06-16 15:00:00 18.8 6 Sudoeste 23 Oeste 0 -- -- 46
2020-06-16 14:00:00 17.7 8 Oeste 21 Sudoeste 0 -- -- 46
2020-06-16 13:00:00 15.8 13 Sur 27 Norte 0 -- -- 66
2020-06-16 12:00:00 17.2 17 Norte 28 Norte 0 -- -- 53
2020-06-16 11:00:00 16.6 8 Este 15 Norte 0 -- -- 53
2020-06-16 10:00:00 14.1 5 Norte 15 Norte 0 -- -- 60
2020-06-16 09:00:00 11.1 5 Este 18 Nordeste 0 -- -- 78
2020-06-16 08:00:00 10.1 12 Nordeste 15 Nordeste 0 -- -- 84
2020-06-16 07:00:00 9.5 6 Nordeste 14 Norte 0 -- -- 87
2020-06-16 06:00:00 9.5 4 Nordeste 12 Norte 0 -- -- 88
2020-06-16 05:00:00 9.7 5 Norte 13 Este 0 -- -- 85
2020-06-16 04:00:00 10.5 9 Nordeste 15 Sudeste 0 -- -- 82
2020-06-16 03:00:00 10.3 4 Nordeste 8 Nordeste 0 -- -- 84
2020-06-16 02:00:00 9.6 0 Calma 5 Sudeste 0 -- -- 88
2020-06-16 01:00:00 9 0 Calma 8 Sudeste 0 -- -- 89
2020-06-16 00:00:00 8.7 4 Sur 9 Sudeste 0 -- -- 89
2020-06-15 23:00:00 9.2 5 Sur 9 Sur 0 -- -- 87
2020-06-15 22:00:00 12.4 3 Sudoeste 16 Norte 0 -- -- 76
2020-06-15 21:00:00 16.7 9 Norte 22 Norte 0 -- -- 60
2020-06-15 20:00:00 16.6 3 Noroeste 14 Sudeste 0 -- -- 66
2020-06-15 19:00:00 16.6 8 Sur 19 Sur 0 -- -- 66
2020-06-15 18:00:00 16.6 10 Sur 24 Sur 0 -- -- 66
2020-06-15 17:00:00 18.4 13 Sur 27 Sudoeste 0 -- -- 59
2020-06-15 16:00:00 17.8 17 Sur 34 Sur 0 -- -- 60
2020-06-15 15:00:00 17.1 18 Sur 31 Sur 0 -- -- 62
2020-06-15 14:00:00 18 16 Sur 31 Sudoeste 0 -- -- 59
2020-06-15 13:00:00 15.9 15 Sur 28 Sudoeste 0 -- -- 64
2020-06-15 12:00:00 16.8 14 Sur 24 Sudoeste 0 -- -- 63
2020-06-15 11:00:00 16 13 Sur 21 Sur 0 -- -- 66
2020-06-15 10:00:00 15.9 3 Norte 6 Norte 0 -- -- 62
2020-06-15 09:00:00 10.9 0 Calma 3 Sudeste 0 -- -- 82
2020-06-15 08:00:00 4.6 0 Calma 5 Sudoeste 0 -- -- 100
2020-06-15 07:00:00 2.2 3 Sur 9 Sur 0 -- -- 99
2020-06-15 06:00:00 2.3 2 Sur 5 Sur 0 -- -- 99
2020-06-15 05:00:00 3.1 2 Sur 5 Sur 0 -- -- 98
2020-06-15 04:00:00 4.2 2 Sur 4 Sur 0 -- -- 97
2020-06-15 03:00:00 5.1 4 Sur 10 Sudoeste 0 -- -- 97
2020-06-15 02:00:00 5.9 3 Sur 7 Sur 0 -- -- 94
2020-06-15 01:00:00 6.6 3 Sur 9 Sudeste 0 -- -- 92
2020-06-15 00:00:00 8.4 2 Sur 9 Sudeste 0 -- -- 86
2020-06-14 23:00:00 9.1 6 Sur 11 Sur 0 -- -- 84
2020-06-14 22:00:00 11.4 4 Sur 14 Norte 0 -- -- 78
2020-06-14 21:00:00 17.2 5 Oeste 16 Sudeste 0 -- -- 55
2020-06-14 20:00:00 16.4 11 Sur 19 Sur 0 -- -- 58
2020-06-14 19:00:00 16.1 10 Sur 20 Sudeste 0 -- -- 58
2020-06-14 18:00:00 17.6 13 Sur 29 Sur 0 -- -- 54
2020-06-14 17:00:00 17.3 14 Sur 27 Sudeste 0 -- -- 57
2020-06-14 16:00:00 18.6 15 Sudoeste 32 Sur 0 -- -- 54
2020-06-14 15:00:00 18.3 13 Sudoeste 35 Sur 0 -- -- 55
2020-06-14 14:00:00 17.1 15 Sur 32 Sudoeste 0 -- -- 56
2020-06-14 13:00:00 16.1 16 Sur 31 Sudoeste 0 -- -- 58
2020-06-14 12:00:00 15 18 Sur 33 Sur 0 -- -- 59
2020-06-14 11:00:00 14.2 14 Sur 23 Sudoeste 0 -- -- 62
2020-06-14 10:00:00 14.1 2 Nordeste 5 Nordeste 0 -- -- 60
2020-06-14 09:00:00 10.7 0 Calma 3 Noroeste 0 -- -- 74
2020-06-14 08:00:00 3 0 Calma 6 Sur 0 -- -- 100
2020-06-14 07:00:00 0.5 0 Calma 3 Sur 0 -- -- 100
2020-06-14 06:00:00 1.7 0 Calma 4 Sudoeste 0 -- -- 100
2020-06-14 05:00:00 2.3 2 Sur 5 Oeste 0 -- -- 98
2020-06-14 04:00:00 2.5 0 Calma 5 Sudeste 0 -- -- 99
2020-06-14 03:00:00 3.4 0 Calma 5 Sur 0 -- -- 97
2020-06-14 02:00:00 3.7 3 Sur 8 Sudeste 0 -- -- 96
2020-06-14 01:00:00 4 2 Sur 9 Sudoeste 0 -- -- 94
2020-06-14 00:00:00 4.8 4 Sur 6 Sur 0 -- -- 94
2020-06-13 23:00:00 6.7 4 Sur 8 Sur 0 -- -- 91
2020-06-13 22:00:00 9 7 Sur 14 Oeste 0 -- -- 81
2020-06-13 21:00:00 13.4 8 Sur 19 Sur 0 -- -- 61
2020-06-13 20:00:00 13.3 11 Sur 23 Sudoeste 0 -- -- 60
2020-06-13 19:00:00 13.7 13 Sur 30 Sur 0 -- -- 58
2020-06-13 18:00:00 14.3 16 Sur 34 Sur 0 -- -- 59
2020-06-13 17:00:00 16.8 18 Sur 37 Sur 0 -- -- 52
2020-06-13 16:00:00 16.3 17 Sur 33 Sur 0 -- -- 57
2020-06-13 15:00:00 14.3 18 Sur 33 Sur 0 -- -- 65
2020-06-13 14:00:00 13.8 15 Sur 30 Sudoeste 0 -- -- 69
2020-06-13 13:00:00 13.2 16 Sur 28 Sur 0 -- -- 69
2020-06-13 12:00:00 14 5 Noroeste 16 Sudoeste 0 -- -- 55
2020-06-13 11:00:00 13.9 4 Norte 19 Norte 0 -- -- 61
2020-06-13 10:00:00 10.8 8 Noroeste 22 Norte 0 -- -- 63
2020-06-13 09:00:00 7.7 8 Noroeste 21 Norte 0 -- -- 78
2020-06-13 08:00:00 6.3 5 Nordeste 12 Norte 0 -- -- 90
2020-06-13 07:00:00 3.4 3 Sudoeste 10 Sudeste 0 -- -- 97
2020-06-13 06:00:00 5 6 Sur 19 Sudeste 0 -- -- 94
2020-06-13 05:00:00 4.2 6 Sur 11 Sudoeste 0 -- -- 98
2020-06-13 04:00:00 5.2 6 Sur 16 Oeste 0 -- -- 92
2020-06-13 03:00:00 5.9 4 Sudoeste 12 Noroeste 0 -- -- 91
2020-06-13 02:00:00 5.9 6 Oeste 12 Sudoeste 0 -- -- 92
2020-06-13 01:00:00 6.9 6 Este 15 Sur 0 -- -- 88
2020-06-13 00:00:00 6.6 8 Sudeste 21 Sur 0.4 -- -- 91
2020-06-12 23:00:00 6.1 5 Sur 13 Sur 0 -- -- 97
2020-06-12 22:00:00 6.8 6 Sur 22 Sur 0 -- -- 90
2020-06-12 21:00:00 7.9 6 Este 30 Nordeste 2.4 -- -- 87
2020-06-12 20:00:00 8.7 6 Oeste 22 Noroeste 0 -- -- 80
2020-06-12 19:00:00 9.8 12 Noroeste 35 Sur 0 -- -- 80
2020-06-12 18:00:00 11.5 17 Sur 34 Sudoeste 0 -- -- 74
2020-06-12 17:00:00 9.7 17 Sur 37 Sur 0.2 -- -- 84
2020-06-12 16:00:00 9.7 20 Sur 31 Sudeste 0.8 -- -- 88
2020-06-12 15:00:00 9.4 16 Sur 32 Sur 0 -- -- 86
2020-06-12 14:00:00 10.1 19 Sur 35 Sur 0 -- -- 73
2020-06-12 13:00:00 9.3 15 Sur 31 Sudoeste 0 -- -- 74
2020-06-12 12:00:00 7.9 12 Sur 25 Sudoeste 0 -- -- 78
2020-06-12 11:00:00 7.4 17 Sur 27 Sur 0 -- -- 77
2020-06-12 10:00:00 8.3 6 Sur 22 Sur 0 -- -- 70
2020-06-12 09:00:00 7.5 6 Sudeste 22 Sur 0 -- -- 75
2020-06-12 08:00:00 6.6 7 Sudeste 28 Este 0 -- -- 75
2020-06-12 07:00:00 5.8 4 Este 18 Este 0 -- -- 75
2020-06-12 06:00:00 3.9 4 Sudoeste 22 Nordeste 0 -- -- 83
2020-06-12 05:00:00 4.9 18 Nordeste 34 Nordeste 0 -- -- 75
2020-06-12 04:00:00 3.2 5 Nordeste 24 Nordeste 0 -- -- 84
2020-06-12 03:00:00 5.2 7 Sudeste 21 Norte 0 -- -- 77
2020-06-12 02:00:00 6.1 11 Norte 18 Norte 0 -- -- 76
2020-06-12 01:00:00 5.3 4 Nordeste 19 Norte 0 -- -- 79
2020-06-12 00:00:00 7.1 6 Norte 17 Norte 0 -- -- 77
2020-06-11 23:00:00 7.9 5 Norte 11 Sudoeste 0 -- -- 78
2020-06-11 22:00:00 9.1 2 Nordeste 13 Oeste 0 -- -- 77
2020-06-11 21:00:00 14.6 7 Oeste 30 Sudoeste 0 -- -- 51
2020-06-11 20:00:00 14 6 Sudoeste 34 Sur 0 -- -- 68
2020-06-11 19:00:00 14 19 Sur 41 Sur 0 -- -- 66
2020-06-11 18:00:00 15.9 18 Sur 33 Sur 0 -- -- 58
2020-06-11 17:00:00 15.8 15 Sur 30 Sur 0 -- -- 60
2020-06-11 16:00:00 17.6 13 Sur 27 Sur 0 -- -- 54
2020-06-11 15:00:00 15.3 15 Sur 31 Sur 0 -- -- 67
2020-06-11 14:00:00 16.9 12 Sur 29 Oeste 0 -- -- 63
2020-06-11 13:00:00 16.8 10 Noroeste 28 Norte 0 -- -- 56
2020-06-11 12:00:00 15.6 11 Noroeste 31 Norte 0 -- -- 58
2020-06-11 11:00:00 17.7 12 Oeste 26 Sudoeste 0 -- -- 48
2020-06-11 10:00:00 16.8 10 Noroeste 22 Noroeste 0 -- -- 51
2020-06-11 09:00:00 14.2 6 Noroeste 16 Norte 0 -- -- 63
2020-06-11 08:00:00 5.2 3 Sur 5 Sudeste 0 -- -- 99
2020-06-11 07:00:00 3.3 3 Sur 6 Sudoeste 0 -- -- 98
2020-06-11 06:00:00 3.8 3 Sur 5 Sudeste 0 -- -- 98
2020-06-11 05:00:00 3.7 2 Sur 4 Sur 0 -- -- 96
2020-06-11 04:00:00 4.5 2 Sur 5 Sudoeste 0 -- -- 95
2020-06-11 03:00:00 6 0 Calma 7 Sudoeste 0 -- -- 88
2020-06-11 02:00:00 7.1 3 Sur 12 Sudeste 0 -- -- 76
2020-06-11 01:00:00 4.5 6 Sur 11 Sur 0 -- -- 84
2020-06-11 00:00:00 6 3 Sur 6 Sudoeste 0 -- -- 77
2020-06-10 23:00:00 9.3 8 Sur 14 Sur 0 -- -- 64
2020-06-10 22:00:00 11.7 9 Sur 14 Sudoeste 0 -- -- 61
2020-06-10 21:00:00 19.4 5 Oeste 15 Sur 0 -- -- 34
2020-06-10 20:00:00 18.3 8 Sudoeste 22 Sudeste 0 -- -- 41
2020-06-10 19:00:00 18.2 11 Sur 30 Sur 0 -- -- 42
2020-06-10 18:00:00 20.2 17 Sur 30 Sur 0 -- -- 39
2020-06-10 17:00:00 19.9 14 Sur 25 Sur 0 -- -- 43
2020-06-10 16:00:00 18.8 15 Sur 31 Sur 0 -- -- 42
2020-06-10 15:00:00 19.3 15 Sur 30 Sudoeste 0 -- -- 45
2020-06-10 14:00:00 17.5 16 Sur 29 Sur 0 -- -- 48
2020-06-10 13:00:00 16.7 17 Sur 31 Sur 0 -- -- 47
2020-06-10 12:00:00 16.2 16 Sur 30 Sudoeste 0 -- -- 53
2020-06-10 11:00:00 15.2 16 Sur 27 Sudoeste 0 -- -- 51
2020-06-10 10:00:00 13.8 8 Sur 16 Sudoeste 0 -- -- 54
2020-06-10 09:00:00 11 0 Calma 5 Norte 0 -- -- 67
2020-06-10 08:00:00 2.4 3 Sudeste 4 Sudeste 0 -- -- 100
2020-06-10 07:00:00 -0.4 0 Calma 4 Sudoeste 0 -- -- 98
2020-06-10 06:00:00 0.2 0 Calma 4 Sur 0 -- -- 97
2020-06-10 05:00:00 1.9 2 Sur 5 Sur 0 -- -- 96
2020-06-10 04:00:00 1.4 0 Calma 4 Sudoeste 0 -- -- 94
2020-06-10 03:00:00 1.8 2 Sur 6 Sudoeste 0 -- -- 92
2020-06-10 02:00:00 2.6 0 Calma 6 Sudeste 0 -- -- 89
2020-06-10 01:00:00 4 3 Sur 6 Sudeste 0 -- -- 84
2020-06-10 00:00:00 5.5 4 Sur 8 Sudoeste 0 -- -- 79
2020-06-09 23:00:00 6.8 5 Sur 6 Sur 0 -- -- 76
2020-06-09 22:00:00 9.6 6 Sur 11 Sudoeste 0 -- -- 68
2020-06-09 21:00:00 15 2 Noroeste 18 Norte 0 -- -- 49
2020-06-09 20:00:00 17.4 14 Norte 28 Norte 0 -- -- 36
2020-06-09 19:00:00 18.3 11 Norte 27 Norte 0 -- -- 36
2020-06-09 18:00:00 19.6 8 Norte 27 Norte 0 -- -- 32
2020-06-09 17:00:00 19.1 12 Norte 30 Norte 0 -- -- 37
2020-06-09 16:00:00 18.7 7 Sudoeste 21 Sudoeste 0 -- -- 43
2020-06-09 15:00:00 17.3 12 Sudoeste 26 Sur 0 -- -- 50
2020-06-09 14:00:00 15.4 15 Sur 32 Sur 0 -- -- 56
2020-06-09 13:00:00 15.5 15 Sur 26 Sudoeste 0 -- -- 57
2020-06-09 12:00:00 15.1 14 Sudoeste 21 Sur 0 -- -- 57
2020-06-09 11:00:00 15.4 10 Norte 24 Norte 0 -- -- 45
2020-06-09 10:00:00 14.7 2 Nordeste 6 Norte 0 -- -- 56
2020-06-09 09:00:00 8.9 0 Calma 4 Norte 0 -- -- 69
2020-06-09 08:00:00 0.5 0 Calma -- -- 0 -- -- 99
2020-06-09 07:00:00 -1.1 0 Calma 5 Sudoeste 0 -- -- 99
2020-06-09 06:00:00 -0.7 0 Calma 8 Sur 0 -- -- 99
2020-06-09 05:00:00 -0.7 0 Calma 4 Sur 0 -- -- 96
2020-06-09 04:00:00 -0.6 0 Calma 5 Sudoeste 0 -- -- 96
2020-06-09 03:00:00 0.1 0 Calma 5 Sudeste 0 -- -- 95
2020-06-09 02:00:00 0.6 0 Calma 4 Sudoeste 0 -- -- 93
2020-06-09 01:00:00 1.9 2 Sur 4 Sudeste 0 -- -- 90
2020-06-09 00:00:00 2.9 2 Sur 3 Sur 0 -- -- 86
2020-06-08 23:00:00 4.6 0 Calma 4 Sur 0 -- -- 78
2020-06-08 22:00:00 7.6 4 Nordeste 23 Norte 0 -- -- 68
2020-06-08 21:00:00 12.4 15 Norte 30 Norte 0 -- -- 50
2020-06-08 20:00:00 14.7 18 Norte 31 Norte 0 -- -- 44
2020-06-08 19:00:00 15.6 19 Norte 31 Norte 0 -- -- 42
2020-06-08 18:00:00 16.5 17 Norte 30 Norte 0 -- -- 40
2020-06-08 17:00:00 16.5 15 Norte 35 Norte 0 -- -- 44
2020-06-08 16:00:00 15.1 14 Norte 35 Norte 0 -- -- 50
2020-06-08 15:00:00 15.6 15 Norte 28 Norte 0 -- -- 54
2020-06-08 14:00:00 14.8 9 Nordeste 27 Norte 0 -- -- 48
2020-06-08 13:00:00 14.8 11 Norte 25 Nordeste 0 -- -- 55
2020-06-08 12:00:00 13.8 13 Nordeste 24 Nordeste 0 -- -- 56
2020-06-08 11:00:00 12.9 12 Norte 22 Norte 0 -- -- 59
2020-06-08 10:00:00 11.2 8 Nordeste 18 Norte 0 -- -- 62
2020-06-08 09:00:00 10.5 9 Nordeste 14 Norte 0 -- -- 68
2020-06-08 08:00:00 7.4 8 Norte 16 Norte 0 -- -- 87
2020-06-08 07:00:00 7.3 12 Norte 19 Norte 0 -- -- 90
2020-06-08 06:00:00 7.6 4 Norte 13 Norte 0 -- -- 90
2020-06-08 05:00:00 8.3 7 Norte 11 Norte 0 -- -- 92
2020-06-08 04:00:00 8.1 3 Norte 9 Nordeste 0 -- -- 94
2020-06-08 03:00:00 8.3 0 Calma 9 Nordeste 0 -- -- 92
2020-06-08 02:00:00 8.6 3 Este 9 Este 0 -- -- 89
2020-06-08 01:00:00 7.8 0 Calma 8 Sudeste 0 -- -- 89
2020-06-08 00:00:00 8.4 3 Nordeste 11 Sudeste 0 -- -- 82
2020-06-07 23:00:00 7.5 0 Calma 7 Sudeste 0 -- -- 84
2020-06-07 22:00:00 9.6 2 Norte 12 Noroeste 0 -- -- 74
2020-06-07 21:00:00 15.9 5 Noroeste 23 Norte 0 -- -- 52
2020-06-07 20:00:00 15.5 12 Norte 29 Norte 0 -- -- 54
2020-06-07 19:00:00 15.7 15 Norte 27 Norte 0 -- -- 51
2020-06-07 18:00:00 16.3 13 Norte 29 Norte 0 -- -- 53
2020-06-07 17:00:00 16.9 15 Norte 34 Norte 0 -- -- 55
2020-06-07 16:00:00 16.1 12 Sur 42 Sur 0 -- -- 71
2020-06-07 15:00:00 16.1 16 Sur 36 Sur 0 -- -- 72
2020-06-07 14:00:00 16 15 Sur 28 Sur 0 -- -- 74
2020-06-07 13:00:00 16.1 12 Sur 30 Sudoeste 0 -- -- 71
2020-06-07 12:00:00 14.6 12 Sur 27 Sudoeste 0 -- -- 77
2020-06-07 11:00:00 17.9 4 Sur 17 Norte 0 -- -- 56
2020-06-07 10:00:00 16.2 7 Norte 12 Nordeste 0 -- -- 60
2020-06-07 09:00:00 13.1 0 Calma 4 Este 0 -- -- 71
2020-06-07 08:00:00 5.6 0 Calma 6 Sudoeste 0 -- -- 98
2020-06-07 07:00:00 3.3 3 Sur 6 Sudoeste 0 -- -- 97
2020-06-07 06:00:00 5 0 Calma 6 Sur 0 -- -- 94
2020-06-07 05:00:00 5.5 2 Sudeste 8 Sudoeste 0 -- -- 90
2020-06-07 04:00:00 4.9 0 Calma 7 Sudeste 0 -- -- 92
2020-06-07 03:00:00 5.1 3 Sudoeste 8 Sudeste 0 -- -- 88
2020-06-07 02:00:00 5.7 2 Sur 10 Sur 0 -- -- 85
2020-06-07 01:00:00 7.8 7 Sur 10 Sur 0 -- -- 78
2020-06-07 00:00:00 7.5 0 Calma 9 Sudoeste 0 -- -- 77